Time;durP1;ratioP1;P1;durP2;ratioP2;P2;SDS_P1;SDS_P2;PMS_P1;PMS_P2;Temp;Humidity;BMP_temperature;BMP_pressure;BME280_temperature;BME280_humidity;BME280_pressure;Samples;Min_cycle;Max_cycle;Signal;HPM_P1;HPM_P2
2021/12/07 00:01:26;;;;;;;26.93;17.43;;;2.10;99.90;;;;;;5030083;28;21250;-76
2021/12/07 00:04:01;;;;;;;27.40;17.70;;;2.10;99.90;;;;;;5028103;28;20626;-75
2021/12/07 00:06:36;;;;;;;31.33;20.00;;;2.20;99.90;;;;;;5029508;28;20701;-76
2021/12/07 00:09:06;;;;;;;27.10;17.67;;;2.10;99.90;;;;;;5025404;28;21236;-76
2021/12/07 00:11:34;;;;;;;30.40;18.97;;;2.10;99.90;;;;;;5029783;28;20670;-76
2021/12/07 00:14:00;;;;;;;32.33;19.07;;;2.10;99.90;;;;;;5022620;28;20656;-75
2021/12/07 00:16:27;;;;;;;28.90;18.70;;;2.10;99.90;;;;;;5022965;28;20793;-75
2021/12/07 00:18:57;;;;;;;30.30;16.53;;;2.00;99.90;;;;;;5027132;28;20656;-76
2021/12/07 00:21:25;;;;;;;30.80;18.87;;;2.00;99.90;;;;;;5063018;28;20935;-76
2021/12/07 00:23:51;;;;;;;27.60;17.33;;;1.80;99.90;;;;;;5031621;28;21464;-75
2021/12/07 00:26:19;;;;;;;28.57;16.77;;;1.90;99.90;;;;;;5032317;28;20640;-76
2021/12/07 00:28:46;;;;;;;26.20;17.17;;;1.90;99.90;;;;;;5026499;28;20685;-76
2021/12/07 00:31:28;;;;;;;27.20;17.87;;;2.10;99.90;;;;;;5043761;28;20603;-76
2021/12/07 00:36:38;;;;;;;26.60;17.77;;;2.10;99.90;;;;;;5029077;28;20646;-77
2021/12/07 00:39:06;;;;;;;30.90;17.27;;;2.10;99.90;;;;;;5024751;28;20722;-76
2021/12/07 00:41:35;;;;;;;33.70;19.40;;;2.10;99.90;;;;;;5028299;28;20687;-76
2021/12/07 00:44:02;;;;;;;28.50;18.83;;;2.10;99.90;;;;;;5027996;28;20709;-77
2021/12/07 00:46:30;;;;;;;31.00;17.87;;;2.10;99.90;;;;;;5040223;28;20662;-76
2021/12/07 00:48:56;;;;;;;31.30;18.80;;;2.10;99.90;;;;;;5028440;28;20658;-76
2021/12/07 00:51:25;;;;;;;30.30;18.27;;;2.10;99.90;;;;;;5029805;28;20611;-76
2021/12/07 00:54:00;;;;;;;;;;;;;;;;;;;;;
2021/12/07 00:56:29;;;;;;;33.77;18.80;;;2.00;99.90;;;;;;5028612;28;20627;-77
2021/12/07 00:58:55;;;;;;;29.93;19.13;;;2.00;99.90;;;;;;5027702;28;20627;-76
2021/12/07 01:01:20;;;;;;;27.30;17.87;;;2.00;99.90;;;;;;5028339;28;21154;-76
2021/12/07 01:03:48;;;;;;;29.73;18.93;;;2.10;99.90;;;;;;5044802;28;20205;-76
2021/12/07 01:06:26;;;;;;;28.87;18.80;;;2.00;99.90;;;;;;5029243;28;20675;-76
2021/12/07 01:25:32;;;;;;;36.10;21.67;;;2.00;99.90;;;;;;5025839;28;20697;-75
2021/12/07 01:28:03;;;;;;;33.87;19.47;;;1.90;99.90;;;;;;5024189;28;20635;-75
2021/12/07 01:33:49;;;;;;;30.43;19.47;;;1.90;99.90;;;;;;5017351;28;20726;-76
2021/12/07 01:59:55;;;;;;;30.53;19.27;;;2.20;99.90;;;;;;5025763;28;20642;-76
2021/12/07 02:02:25;;;;;;;30.73;18.30;;;2.20;99.90;;;;;;5024348;28;20646;-76
2021/12/07 02:04:53;;;;;;;31.23;19.77;;;2.10;99.90;;;;;;5025227;28;20619;-76
2021/12/07 02:07:22;;;;;;;32.90;19.40;;;2.20;99.90;;;;;;5023457;28;20705;-76
2021/12/07 02:09:55;;;;;;;30.33;18.80;;;2.20;99.90;;;;;;5022926;28;20749;-75
2021/12/07 02:12:21;;;;;;;30.33;19.03;;;2.10;99.90;;;;;;5019414;28;20649;-76
2021/12/07 02:14:47;;;;;;;31.17;19.30;;;2.10;99.90;;;;;;5021969;28;21037;-74
2021/12/07 02:17:17;;;;;;;29.67;19.20;;;2.10;99.90;;;;;;5022938;28;20766;-76
2021/12/07 02:19:42;;;;;;;33.23;20.37;;;2.10;99.90;;;;;;5041150;28;20209;-76
2021/12/07 02:22:10;;;;;;;37.23;21.80;;;2.10;99.90;;;;;;5021403;28;21043;-75
2021/12/07 02:24:38;;;;;;;28.00;18.47;;;2.10;99.90;;;;;;5023039;28;20216;-76
2021/12/07 02:27:04;;;;;;;31.80;19.33;;;2.20;99.90;;;;;;5026615;28;20657;-75
2021/12/07 02:29:32;;;;;;;36.57;20.50;;;2.20;99.90;;;;;;5026925;28;21202;-76
2021/12/07 02:31:59;;;;;;;32.10;20.17;;;2.20;99.90;;;;;;5026791;28;20193;-76
2021/12/07 02:34:27;;;;;;;30.47;18.60;;;2.30;99.90;;;;;;5031917;28;21252;-75
2021/12/07 02:36:59;;;;;;;32.43;20.03;;;2.20;99.90;;;;;;5029309;28;20639;-76
2021/12/07 02:39:35;;;;;;;31.10;19.43;;;2.20;99.90;;;;;;5028977;28;20665;-76
2021/12/07 02:42:01;;;;;;;29.87;19.77;;;2.20;99.90;;;;;;5027136;28;20615;-76
2021/12/07 02:44:27;;;;;;;32.00;19.63;;;2.20;99.90;;;;;;5033928;28;21285;-76
2021/12/07 02:46:52;;;;;;;29.33;19.40;;;2.10;99.90;;;;;;5026730;28;20779;-75
2021/12/07 02:49:19;;;;;;;34.37;18.67;;;2.10;99.90;;;;;;5030031;28;20224;-76
2021/12/07 02:51:45;;;;;;;28.97;18.77;;;2.20;99.90;;;;;;5027222;28;20279;-76
2021/12/07 02:54:11;;;;;;;35.77;20.20;;;2.20;99.90;;;;;;5029920;28;21174;-76
2021/12/07 02:56:37;;;;;;;28.80;18.73;;;2.20;99.90;;;;;;5035339;28;20639;-75
2021/12/07 02:59:04;;;;;;;28.80;19.17;;;2.40;99.90;;;;;;5027341;28;20215;-75
2021/12/07 03:01:38;;;;;;;32.63;19.73;;;2.20;99.90;;;;;;5028920;28;20197;-75
2021/12/07 03:04:11;;;;;;;33.20;19.50;;;2.10;99.90;;;;;;5029337;28;20628;-74
2021/12/07 03:07:22;;;;;;;33.40;21.73;;;2.10;99.90;;;;;;5028377;28;20728;-76
2021/12/07 03:26:27;;;;;;;31.87;19.93;;;2.00;99.90;;;;;;5029943;28;21185;-76
2021/12/07 03:28:57;;;;;;;35.20;20.70;;;2.00;99.90;;;;;;5028535;28;20741;-76
2021/12/07 03:31:25;;;;;;;32.43;20.53;;;2.10;99.90;;;;;;5031495;28;20702;-75
2021/12/07 03:33:53;;;;;;;35.87;21.20;;;2.10;99.90;;;;;;5061464;28;20714;-75
2021/12/07 03:36:20;;;;;;;33.30;21.23;;;2.20;99.90;;;;;;5028626;28;20639;-75
2021/12/07 03:38:49;;;;;;;32.70;19.97;;;2.20;99.90;;;;;;5046433;28;20651;-76
2021/12/07 03:41:16;;;;;;;33.50;20.60;;;2.20;99.90;;;;;;5030499;28;20600;-77
2021/12/07 03:43:45;;;;;;;35.10;21.30;;;2.30;99.90;;;;;;5029547;28;20619;-76
2021/12/07 03:46:11;;;;;;;33.37;20.80;;;2.20;99.90;;;;;;5036160;28;20655;-76
2021/12/07 03:48:38;;;;;;;34.63;19.80;;;2.20;99.90;;;;;;5029277;28;20661;-75
2021/12/07 03:51:04;;;;;;;33.00;20.60;;;2.20;99.90;;;;;;5030551;28;20612;-75
2021/12/07 03:53:30;;;;;;;34.60;20.50;;;2.10;99.90;;;;;;5030848;28;20734;-75
2021/12/07 03:55:58;;;;;;;34.47;20.53;;;2.00;99.90;;;;;;5029433;28;20646;-76
2021/12/07 03:58:24;;;;;;;36.07;20.10;;;2.10;99.90;;;;;;5027851;28;20205;-75
2021/12/07 04:00:49;;;;;;;34.40;21.03;;;2.10;99.90;;;;;;5029738;28;20646;-76
2021/12/07 04:03:17;;;;;;;32.67;19.93;;;2.20;99.90;;;;;;5029334;28;20619;-75
2021/12/07 04:05:48;;;;;;;32.60;21.20;;;2.20;99.90;;;;;;5027297;28;20221;-75
2021/12/07 04:08:25;;;;;;;34.97;20.50;;;2.10;99.90;;;;;;5029662;28;20631;-75
2021/12/07 04:10:54;;;;;;;34.47;20.93;;;2.10;99.90;;;;;;5032398;28;20658;-75
2021/12/07 04:13:22;;;;;;;33.37;20.13;;;2.20;99.90;;;;;;5027984;28;20650;-75
2021/12/07 04:15:48;;;;;;;31.93;19.73;;;2.20;99.90;;;;;;5026716;28;20657;-75
2021/12/07 04:18:15;;;;;;;31.40;19.60;;;2.20;99.90;;;;;;5028100;28;20635;-75
2021/12/07 04:20:43;;;;;;;34.30;20.93;;;2.20;99.90;;;;;;5027919;28;20673;-75
2021/12/07 04:23:09;;;;;;;33.63;20.40;;;2.30;99.90;;;;;;5026743;28;20689;-76
2021/12/07 04:25:35;;;;;;;34.57;20.50;;;2.20;99.90;;;;;;5029799;28;20616;-75
2021/12/07 04:28:07;;;;;;;34.13;19.40;;;2.20;99.90;;;;;;5023819;28;20232;-75
2021/12/07 04:30:38;;;;;;;33.53;20.50;;;2.20;99.90;;;;;;5028789;28;20643;-75
2021/12/07 04:33:06;;;;;;;35.07;20.60;;;2.20;99.90;;;;;;5031730;28;20674;-75
2021/12/07 04:35:33;;;;;;;35.67;21.20;;;2.20;99.90;;;;;;5035810;28;20623;-76
2021/12/07 04:37:59;;;;;;;35.10;22.67;;;2.30;99.90;;;;;;5027763;28;20740;-75
2021/12/07 04:40:29;;;;;;;32.77;19.97;;;2.30;99.90;;;;;;5026095;28;20608;-76
2021/12/07 04:42:56;;;;;;;32.03;20.37;;;2.30;99.90;;;;;;5022381;28;20538;-76
2021/12/07 04:48:25;;;;;;;34.33;20.77;;;2.20;99.90;;;;;;5029728;28;20659;-76
2021/12/07 04:59:12;;;;;;;34.23;21.10;;;2.40;99.90;;;;;;5029102;28;20631;-75
2021/12/07 05:01:38;;;;;;;28.80;19.63;;;2.40;99.90;;;;;;5027129;28;20608;-76
2021/12/07 05:04:15;;;;;;;30.03;19.27;;;2.40;99.90;;;;;;5026901;28;20654;-75
2021/12/07 05:06:50;;;;;;;33.90;20.63;;;2.40;99.90;;;;;;5028630;28;20711;-75
2021/12/07 05:09:36;;;;;;;28.73;18.43;;;2.30;99.90;;;;;;5026370;28;20852;-75
2021/12/07 05:14:34;;;;;;;33.13;19.93;;;2.40;99.90;;;;;;5027217;28;20680;-75
2021/12/07 05:38:52;;;;;;;29.40;19.33;;;2.50;99.90;;;;;;5031925;28;20665;-75
2021/12/07 05:41:17;;;;;;;34.40;19.40;;;2.50;99.90;;;;;;5032225;28;20599;-75
2021/12/07 05:43:43;;;;;;;31.90;20.30;;;2.60;99.90;;;;;;5026712;28;20197;-75
2021/12/07 05:46:08;;;;;;;37.33;21.10;;;2.60;99.90;;;;;;5018484;28;20220;-74
2021/12/07 05:48:34;;;;;;;32.20;20.80;;;2.50;99.90;;;;;;5029875;28;20208;-75
2021/12/07 05:51:00;;;;;;;29.97;19.47;;;2.50;99.90;;;;;;5027353;28;20225;-75
2021/12/07 05:53:29;;;;;;;32.07;20.87;;;2.40;99.90;;;;;;5028117;28;20215;-75
2021/12/07 05:55:54;;;;;;;31.03;19.93;;;2.40;99.90;;;;;;5023664;28;20813;-76
2021/12/07 05:58:20;;;;;;;32.13;20.37;;;2.50;99.90;;;;;;5025876;28;20719;-76
2021/12/07 06:00:47;;;;;;;29.60;18.20;;;2.40;99.90;;;;;;5030097;28;20275;-76
2021/12/07 06:03:16;;;;;;;32.03;19.53;;;2.40;99.90;;;;;;5028531;28;20189;-76
2021/12/07 06:05:44;;;;;;;31.50;20.27;;;2.50;99.90;;;;;;5029884;28;21160;-76
2021/12/07 06:08:10;;;;;;;28.60;18.43;;;2.50;99.90;;;;;;5028169;28;20646;-76
2021/12/07 06:10:36;;;;;;;32.87;19.23;;;2.50;99.90;;;;;;5028968;28;20648;-76
2021/12/07 06:13:02;;;;;;;30.80;19.03;;;2.50;99.90;;;;;;5031750;28;20216;-76
2021/12/07 06:15:32;;;;;;;31.30;20.17;;;2.50;99.90;;;;;;5028496;28;20558;-77
2021/12/07 06:17:57;;;;;;;30.67;19.77;;;2.50;99.90;;;;;;5026959;28;20631;-77
2021/12/07 06:20:26;;;;;;;28.93;18.57;;;2.50;99.90;;;;;;5031066;28;20654;-76
2021/12/07 06:22:51;;;;;;;30.07;19.00;;;2.60;99.90;;;;;;5031484;28;20197;-76
2021/12/07 06:25:17;;;;;;;31.30;19.30;;;2.50;99.90;;;;;;5029107;28;20626;-76
2021/12/07 06:27:45;;;;;;;30.97;19.97;;;2.60;99.90;;;;;;5043852;28;20231;-77
2021/12/07 06:30:13;;;;;;;31.70;19.10;;;2.60;99.90;;;;;;5025892;28;20208;-76
2021/12/07 06:32:39;;;;;;;29.63;17.90;;;2.50;99.90;;;;;;5036388;28;20646;-76
2021/12/07 06:35:08;;;;;;;34.00;19.80;;;2.60;99.90;;;;;;5041386;28;21403;-76
2021/12/07 06:37:34;;;;;;;30.70;20.07;;;2.50;99.90;;;;;;5026185;28;20628;-76
2021/12/07 06:40:00;;;;;;;32.80;18.70;;;2.50;99.90;;;;;;5023634;28;20649;-75
2021/12/07 06:42:25;;;;;;;28.97;18.03;;;2.50;99.90;;;;;;5027699;28;20184;-75
2021/12/07 06:44:51;;;;;;;32.50;18.70;;;2.60;99.90;;;;;;5055592;28;20188;-76
2021/12/07 06:47:17;;;;;;;30.43;18.23;;;2.60;99.90;;;;;;5025213;28;20223;-75
2021/12/07 06:49:42;;;;;;;28.67;18.70;;;2.60;99.90;;;;;;5025245;28;20221;-75
2021/12/07 06:52:08;;;;;;;30.27;17.80;;;2.60;99.90;;;;;;5042734;28;20272;-75
2021/12/07 06:54:35;;;;;;;29.57;18.07;;;2.60;99.90;;;;;;5027959;28;20200;-75
2021/12/07 06:57:02;;;;;;;29.63;18.03;;;2.50;99.90;;;;;;5022901;28;20217;-75
2021/12/07 06:59:27;;;;;;;29.27;17.23;;;2.50;99.90;;;;;;5029795;28;21202;-75
2021/12/07 07:01:53;;;;;;;26.00;16.47;;;2.60;99.90;;;;;;5028014;28;20681;-76
2021/12/07 07:04:18;;;;;;;28.63;18.20;;;2.60;99.90;;;;;;5018580;28;21117;-75
2021/12/07 07:06:44;;;;;;;26.00;18.03;;;2.60;99.90;;;;;;5027833;28;20228;-76
2021/12/07 07:09:11;;;;;;;28.37;18.13;;;2.60;99.90;;;;;;5025672;28;20272;-74
2021/12/07 07:11:40;;;;;;;27.23;17.30;;;2.60;99.90;;;;;;5025406;28;20189;-76
2021/12/07 07:14:06;;;;;;;29.13;18.57;;;2.40;99.90;;;;;;5025015;28;20647;-76
2021/12/07 07:16:31;;;;;;;30.23;18.13;;;2.50;99.90;;;;;;5042994;28;20627;-75
2021/12/07 07:18:57;;;;;;;30.50;17.87;;;2.50;99.90;;;;;;5043126;28;20291;-76
2021/12/07 07:21:24;;;;;;;29.10;17.90;;;2.30;99.90;;;;;;5023502;28;20657;-76
2021/12/07 07:23:53;;;;;;;28.93;18.27;;;2.60;99.90;;;;;;5022382;28;20631;-76
2021/12/07 07:26:19;;;;;;;28.33;17.00;;;2.50;99.90;;;;;;5028575;28;20635;-75
2021/12/07 07:28:45;;;;;;;28.37;17.73;;;2.60;99.90;;;;;;5024743;28;20639;-75
2021/12/07 07:31:12;;;;;;;31.67;18.90;;;2.50;99.90;;;;;;5028237;28;20645;-75
2021/12/07 07:33:38;;;;;;;28.17;17.67;;;2.50;99.90;;;;;;5027775;28;20228;-76
2021/12/07 07:36:06;;;;;;;30.20;18.33;;;2.50;99.90;;;;;;5024605;28;20652;-75
2021/12/07 07:38:32;;;;;;;26.00;16.90;;;2.70;99.90;;;;;;5023923;28;20201;-76
2021/12/07 07:40:58;;;;;;;30.10;18.03;;;2.50;99.90;;;;;;5030376;28;20624;-76
2021/12/07 07:43:24;;;;;;;33.50;18.73;;;2.50;99.90;;;;;;5030014;28;20801;-76
2021/12/07 07:45:51;;;;;;;29.00;18.07;;;2.50;99.90;;;;;;5023054;28;21039;-75
2021/12/07 07:48:19;;;;;;;26.73;17.00;;;2.40;99.90;;;;;;5026904;28;20635;-75
2021/12/07 07:50:45;;;;;;;29.97;17.90;;;2.40;99.90;;;;;;5025432;28;20616;-75
2021/12/07 07:53:11;;;;;;;29.73;19.20;;;2.40;99.90;;;;;;5030147;28;20651;-75
2021/12/07 07:55:39;;;;;;;27.50;17.30;;;2.50;99.90;;;;;;5030814;28;21514;-76
2021/12/07 07:58:06;;;;;;;28.33;17.80;;;2.50;99.90;;;;;;5028256;28;20636;-75
2021/12/07 08:00:32;;;;;;;29.80;18.40;;;2.50;99.90;;;;;;5026853;28;20681;-76
2021/12/07 08:02:57;;;;;;;26.20;17.13;;;2.40;99.90;;;;;;5022715;28;20662;-75
2021/12/07 08:05:23;;;;;;;28.80;17.50;;;2.50;99.90;;;;;;5024983;28;20643;-76
2021/12/07 08:07:49;;;;;;;26.60;17.63;;;2.50;99.90;;;;;;5029668;28;20233;-76
2021/12/07 08:10:28;;;;;;;33.13;18.30;;;2.60;99.90;;;;;;5027329;28;20209;-76
2021/12/07 08:12:58;;;;;;;28.30;18.00;;;2.60;99.90;;;;;;5028114;28;20207;-75
2021/12/07 08:15:26;;;;;;;30.97;18.93;;;2.70;99.90;;;;;;5027375;28;20615;-76
2021/12/07 08:17:51;;;;;;;31.90;18.40;;;2.70;99.90;;;;;;5028717;28;20643;-76
2021/12/07 08:20:17;;;;;;;28.50;19.20;;;2.70;99.90;;;;;;5024480;28;20639;-76
2021/12/07 08:22:43;;;;;;;28.97;17.83;;;2.50;99.90;;;;;;5027342;28;20647;-75
2021/12/07 08:25:09;;;;;;;31.00;18.80;;;2.60;99.90;;;;;;5026787;28;20699;-76
2021/12/07 08:27:35;;;;;;;28.40;18.93;;;2.50;99.90;;;;;;5027008;28;20271;-76
2021/12/07 08:30:04;;;;;;;37.30;19.97;;;2.60;99.90;;;;;;5025147;28;20630;-75
2021/12/07 08:32:29;;;;;;;32.37;19.50;;;2.60;99.90;;;;;;5023173;28;20605;-75
2021/12/07 08:34:55;;;;;;;35.03;19.80;;;2.60;99.90;;;;;;5023678;28;20713;-75
2021/12/07 08:37:20;;;;;;;32.03;19.63;;;2.70;99.90;;;;;;5033674;28;20217;-75
2021/12/07 08:39:46;;;;;;;33.73;18.97;;;2.60;99.90;;;;;;5024938;28;20233;-75
2021/12/07 08:42:12;;;;;;;31.90;19.40;;;2.60;99.90;;;;;;5024157;28;20215;-75
2021/12/07 08:44:37;;;;;;;29.47;17.97;;;2.80;99.90;;;;;;5039521;28;20669;-75
2021/12/07 08:47:03;;;;;;;31.50;19.13;;;2.60;99.90;;;;;;5026471;28;20761;-75
2021/12/07 08:49:29;;;;;;;30.40;18.37;;;2.60;99.90;;;;;;5029043;28;20243;-78
2021/12/07 08:51:54;;;;;;;28.40;18.53;;;2.70;99.90;;;;;;5043333;28;20656;-74
2021/12/07 08:59:37;;;;;;;35.83;19.73;;;2.70;99.90;;;;;;5025934;28;20209;-76
2021/12/07 09:00:06;;;;;;;30.33;19.60;;;2.70;99.90;;;;;;5026162;28;21086;-75
2021/12/07 09:02:33;;;;;;;32.90;18.80;;;2.70;99.90;;;;;;5027718;28;20594;-76
2021/12/07 09:04:59;;;;;;;28.87;19.83;;;2.70;99.90;;;;;;5028613;28;20638;-76
2021/12/07 09:07:26;;;;;;;31.17;19.10;;;2.70;99.90;;;;;;5027122;28;20673;-76
2021/12/07 09:09:52;;;;;;;30.13;18.30;;;2.90;99.90;;;;;;5027229;28;20631;-76
2021/12/07 09:12:21;;;;;;;30.97;19.53;;;2.70;99.90;;;;;;5026742;28;21197;-76
2021/12/07 09:14:47;;;;;;;30.80;19.73;;;2.80;99.90;;;;;;5023034;28;20735;-76
2021/12/07 09:17:15;;;;;;;30.83;19.53;;;2.70;99.90;;;;;;5026957;28;20636;-75
2021/12/07 09:19:47;;;;;;;32.07;20.10;;;2.70;99.90;;;;;;5027338;28;20718;-75
2021/12/07 09:22:13;;;;;;;30.40;20.37;;;2.70;99.90;;;;;;5025944;28;20611;-75
2021/12/07 09:24:41;;;;;;;29.73;18.77;;;2.80;99.90;;;;;;5023568;28;20619;-75
2021/12/07 09:27:06;;;;;;;31.90;20.37;;;2.60;99.90;;;;;;5022354;28;20685;-75
2021/12/07 09:29:33;;;;;;;32.17;19.37;;;2.60;99.90;;;;;;5028762;28;20635;-75
2021/12/07 09:31:59;;;;;;;35.70;19.83;;;2.70;99.90;;;;;;5026703;28;20287;-75
2021/12/07 09:34:25;;;;;;;30.70;18.97;;;2.60;99.90;;;;;;5025123;28;20659;-75
2021/12/07 09:36:50;;;;;;;32.43;19.23;;;2.60;99.90;;;;;;5028659;28;20692;-76
2021/12/07 09:39:17;;;;;;;30.23;19.50;;;2.60;99.90;;;;;;5025031;28;21916;-76
2021/12/07 09:41:44;;;;;;;30.00;19.80;;;2.60;99.90;;;;;;5023715;28;20605;-75
2021/12/07 09:44:11;;;;;;;32.13;19.63;;;2.70;99.90;;;;;;5022401;28;21178;-77
2021/12/07 09:46:37;;;;;;;32.27;19.83;;;2.60;99.90;;;;;;5019715;28;20632;-75
2021/12/07 09:49:05;;;;;;;30.70;18.33;;;2.70;99.90;;;;;;5025214;28;20732;-75
2021/12/07 09:51:31;;;;;;;31.30;18.73;;;2.60;99.90;;;;;;5029591;28;20631;-76
2021/12/07 09:53:58;;;;;;;38.33;20.13;;;2.70;99.90;;;;;;5025667;28;20734;-75
2021/12/07 09:56:25;;;;;;;32.43;20.63;;;2.60;99.90;;;;;;5024980;28;20658;-75
2021/12/07 09:58:54;;;;;;;31.07;18.63;;;2.60;99.90;;;;;;5024613;28;20635;-76
2021/12/07 10:01:20;;;;;;;29.77;18.50;;;2.70;99.90;;;;;;5023490;28;21246;-77
2021/12/07 10:03:47;;;;;;;31.43;19.60;;;2.80;99.90;;;;;;5039813;28;21191;-76
2021/12/07 10:06:13;;;;;;;36.07;20.50;;;2.70;99.90;;;;;;5023924;28;20631;-76
2021/12/07 10:08:39;;;;;;;31.30;18.97;;;2.60;99.90;;;;;;5025012;28;22959;-75
2021/12/07 10:11:08;;;;;;;34.63;19.20;;;2.70;99.90;;;;;;5024315;28;20651;-75
2021/12/07 10:13:34;;;;;;;28.17;18.23;;;2.70;99.90;;;;;;5040727;28;21274;-76
2021/12/07 10:16:06;;;;;;;31.90;19.97;;;2.80;99.90;;;;;;5023198;28;21064;-76
2021/12/07 10:18:36;;;;;;;29.97;19.43;;;2.80;99.90;;;;;;5026906;28;20670;-75
2021/12/07 10:21:05;;;;;;;32.17;20.80;;;2.70;99.90;;;;;;5025925;28;20599;-75
2021/12/07 10:24:09;;;;;;;31.87;18.43;;;2.80;99.90;;;;;;5030052;28;20986;-76
2021/12/07 10:26:42;;;;;;;30.03;18.17;;;2.80;99.90;;;;;;5019975;28;20646;-75
2021/12/07 10:29:11;;;;;;;31.97;19.33;;;2.90;99.90;;;;;;5024210;28;20643;-75
2021/12/07 10:31:44;;;;;;;30.70;19.97;;;2.90;99.90;;;;;;5023036;28;20614;-75
2021/12/07 10:34:20;;;;;;;32.13;19.37;;;2.80;99.90;;;;;;5026616;28;20639;-75
2021/12/07 10:36:46;;;;;;;33.60;19.23;;;2.80;99.90;;;;;;5024965;28;20642;-76
2021/12/07 10:39:16;;;;;;;33.97;20.97;;;2.70;99.90;;;;;;5025526;28;20647;-75
2021/12/07 10:41:53;;;;;;;29.83;19.03;;;2.70;99.90;;;;;;5029466;28;20629;-75
2021/12/07 10:44:22;;;;;;;34.30;18.93;;;2.60;99.90;;;;;;5027157;28;20660;-75
2021/12/07 10:47:09;;;;;;;29.63;18.20;;;2.70;99.90;;;;;;5022616;28;21331;-76
2021/12/07 10:49:50;;;;;;;34.40;21.33;;;2.80;99.90;;;;;;5031311;28;20671;-76
2021/12/07 10:52:24;;;;;;;29.80;18.50;;;2.90;99.90;;;;;;5029351;28;21027;-76
2021/12/07 10:55:15;;;;;;;27.13;18.20;;;2.90;99.90;;;;;;5026380;28;20685;-76
2021/12/07 10:57:56;;;;;;;31.70;18.63;;;3.00;99.90;;;;;;5022333;28;20639;-75
2021/12/07 11:00:40;;;;;;;31.20;18.47;;;3.00;99.90;;;;;;5028042;28;21040;-75
2021/12/07 11:03:09;;;;;;;28.13;17.47;;;3.00;99.90;;;;;;5024031;28;20616;-76
2021/12/07 11:05:39;;;;;;;29.10;19.03;;;2.90;99.90;;;;;;5031725;28;20646;-75
2021/12/07 11:08:07;;;;;;;32.70;20.30;;;3.10;99.90;;;;;;5028669;28;20983;-76
2021/12/07 11:10:38;;;;;;;30.40;19.10;;;3.10;99.90;;;;;;5029216;28;20626;-75
2021/12/07 11:13:23;;;;;;;29.30;18.60;;;3.00;99.90;;;;;;5028893;28;20637;-75
2021/12/07 11:15:54;;;;;;;32.50;19.40;;;3.10;99.90;;;;;;5031923;28;20615;-75
2021/12/07 11:18:33;;;;;;;30.03;18.80;;;3.10;99.90;;;;;;5036400;28;20670;-75
2021/12/07 11:21:09;;;;;;;31.90;19.43;;;3.20;99.90;;;;;;5027713;28;20608;-76
2021/12/07 11:23:43;;;;;;;30.80;18.87;;;3.00;99.90;;;;;;5059121;28;20761;-75
2021/12/07 11:31:28;;;;;;;28.90;19.13;;;3.20;99.90;;;;;;5027280;28;21011;-75
2021/12/07 11:34:18;;;;;;;31.20;19.13;;;3.20;99.90;;;;;;5027029;28;21210;-75
2021/12/07 11:36:51;;;;;;;30.97;18.67;;;3.10;99.90;;;;;;5028834;28;20722;-74
2021/12/07 11:39:31;;;;;;;31.83;18.90;;;3.10;99.90;;;;;;5043649;28;20643;-75
2021/12/07 11:42:09;;;;;;;31.43;19.30;;;3.20;99.90;;;;;;5031971;28;20603;-75
2021/12/07 11:44:54;;;;;;;31.50;19.20;;;3.20;99.90;;;;;;5029712;28;20583;-76
2021/12/07 11:47:31;;;;;;;28.40;18.13;;;3.30;99.90;;;;;;5024612;28;20689;-76
2021/12/07 11:50:00;;;;;;;29.00;18.87;;;3.40;99.90;;;;;;5024716;28;20662;-75
2021/12/07 11:52:27;;;;;;;30.80;19.70;;;3.40;99.90;;;;;;5026468;28;20634;-76
2021/12/07 11:54:53;;;;;;;31.03;19.67;;;3.30;99.90;;;;;;5028133;28;21092;-75
2021/12/07 11:57:20;;;;;;;28.87;18.17;;;3.20;99.90;;;;;;5027303;28;20718;-76
2021/12/07 11:59:49;;;;;;;28.30;18.10;;;3.30;99.90;;;;;;5027515;28;20648;-76
2021/12/07 12:02:18;;;;;;;28.73;19.37;;;3.30;99.90;;;;;;5021309;28;20623;-76
2021/12/07 12:04:44;;;;;;;31.90;18.83;;;3.20;99.90;;;;;;5026161;28;20624;-75
2021/12/07 12:07:12;;;;;;;27.70;18.17;;;3.10;99.90;;;;;;5023278;28;20639;-75
2021/12/07 12:09:46;;;;;;;31.87;19.00;;;3.10;99.90;;;;;;5029401;28;20675;-75
2021/12/07 12:12:29;;;;;;;29.00;18.50;;;3.20;99.90;;;;;;5027343;28;20630;-76
2021/12/07 12:15:00;;;;;;;30.97;19.90;;;3.30;99.90;;;;;;5035264;28;21128;-75
2021/12/07 12:17:51;;;;;;;31.57;18.77;;;3.40;99.90;;;;;;5027314;28;20635;-76
2021/12/07 12:20:32;;;;;;;30.20;19.90;;;3.30;99.90;;;;;;5028875;28;20622;-76
2021/12/07 12:23:02;;;;;;;31.40;18.87;;;3.30;99.90;;;;;;5028035;28;20641;-75
2021/12/07 12:25:31;;;;;;;30.00;19.50;;;3.30;99.90;;;;;;5023995;28;20644;-76
2021/12/07 12:27:58;;;;;;;27.87;18.53;;;3.30;99.90;;;;;;5021889;28;21242;-75
2021/12/07 12:30:37;;;;;;;32.47;20.47;;;3.30;99.90;;;;;;5027698;28;22121;-75
2021/12/07 12:33:06;;;;;;;29.40;19.10;;;3.40;99.90;;;;;;5034056;28;20619;-76
2021/12/07 12:35:42;;;;;;;30.60;19.50;;;3.50;99.90;;;;;;5026990;28;20673;-75
2021/12/07 12:38:23;;;;;;;29.63;17.87;;;3.50;99.90;;;;;;5038302;28;20631;-75
2021/12/07 12:41:18;;;;;;;29.10;18.90;;;3.60;99.90;;;;;;5021817;28;20652;-76
2021/12/07 12:43:54;;;;;;;31.13;19.00;;;3.50;99.90;;;;;;5030176;28;21201;-76
2021/12/07 12:46:31;;;;;;;33.90;20.80;;;3.60;99.90;;;;;;5022767;28;20646;-76
2021/12/07 12:49:02;;;;;;;34.30;19.40;;;3.60;99.90;;;;;;5020919;28;20671;-76
2021/12/07 12:51:44;;;;;;;27.10;18.30;;;3.70;99.90;;;;;;5018016;28;20584;-76
2021/12/07 12:54:10;;;;;;;29.83;18.50;;;3.60;99.90;;;;;;5007983;28;20810;-76
2021/12/07 12:56:37;;;;;;;32.13;19.40;;;3.60;99.90;;;;;;5020327;28;20655;-75
2021/12/07 12:59:09;;;;;;;30.93;18.77;;;3.70;99.90;;;;;;5035783;28;21157;-75
2021/12/07 13:01:41;;;;;;;30.33;19.57;;;3.70;99.90;;;;;;5024307;28;20623;-76
2021/12/07 13:04:13;;;;;;;32.20;20.30;;;3.80;99.90;;;;;;5023808;28;21222;-76
2021/12/07 13:06:54;;;;;;;32.10;20.23;;;3.70;99.90;;;;;;5020155;28;20643;-75
2021/12/07 13:09:20;;;;;;;31.13;19.40;;;3.60;99.90;;;;;;5021232;28;20632;-75
2021/12/07 13:11:54;;;;;;;30.50;20.63;;;3.70;99.90;;;;;;5030181;28;21151;-76
2021/12/07 13:14:20;;;;;;;31.97;21.13;;;3.50;99.90;;;;;;5027219;28;20422;-76
2021/12/07 13:17:03;;;;;;;34.33;20.40;;;3.40;99.90;;;;;;5029255;28;20638;-76
2021/12/07 13:19:29;;;;;;;28.80;18.37;;;3.40;99.90;;;;;;5058719;28;20981;-77
2021/12/07 13:22:03;;;;;;;29.60;19.60;;;3.50;99.90;;;;;;5028328;28;20626;-76
2021/12/07 13:24:39;;;;;;;33.03;22.63;;;3.40;99.90;;;;;;5024630;28;20718;-76
2021/12/07 13:27:11;;;;;;;31.70;20.10;;;3.40;99.90;;;;;;5060418;28;20712;-76
2021/12/07 13:29:43;;;;;;;31.13;19.50;;;3.30;99.90;;;;;;5027578;28;20697;-76
2021/12/07 13:32:10;;;;;;;31.50;19.43;;;3.40;99.90;;;;;;5023717;28;20620;-76
2021/12/07 13:34:37;;;;;;;30.27;18.63;;;3.40;99.90;;;;;;5024885;28;20662;-76
2021/12/07 13:37:05;;;;;;;32.77;20.07;;;3.40;99.90;;;;;;5022464;28;21000;-76
2021/12/07 13:39:37;;;;;;;30.90;18.53;;;3.50;99.90;;;;;;5020659;28;20692;-76
2021/12/07 13:42:11;;;;;;;35.37;21.33;;;3.50;99.90;;;;;;5045882;28;20624;-76
2021/12/07 13:44:56;;;;;;;34.10;20.67;;;3.40;99.90;;;;;;5026858;28;20584;-76
2021/12/07 13:47:26;;;;;;;36.50;20.77;;;3.40;99.90;;;;;;5026534;28;20635;-76
2021/12/07 13:50:00;;;;;;;30.97;18.17;;;3.40;99.90;;;;;;5024248;28;20745;-76
2021/12/07 13:52:35;;;;;;;33.33;21.67;;;3.50;99.90;;;;;;5026273;28;20619;-76
2021/12/07 13:55:06;;;;;;;28.77;19.17;;;3.40;99.90;;;;;;5026326;28;20697;-76
2021/12/07 13:57:37;;;;;;;32.80;19.00;;;3.50;99.90;;;;;;5024586;28;20646;-76
2021/12/07 14:00:34;;;;;;;31.30;19.33;;;3.50;99.90;;;;;;5025150;28;20693;-76
2021/12/07 14:03:05;;;;;;;35.27;20.83;;;3.40;99.90;;;;;;5026634;28;20572;-76
2021/12/07 14:05:32;;;;;;;30.50;19.40;;;3.40;99.90;;;;;;5019831;28;20593;-75
2021/12/07 14:07:59;;;;;;;30.70;18.87;;;3.40;99.90;;;;;;5017568;28;20992;-77
2021/12/07 14:10:31;;;;;;;33.70;19.87;;;3.40;99.90;;;;;;5023223;28;20612;-75
2021/12/07 14:12:58;;;;;;;31.27;20.47;;;3.40;99.90;;;;;;5021239;28;21600;-74
2021/12/07 14:15:30;;;;;;;31.10;20.57;;;3.40;99.90;;;;;;5022280;28;20763;-75
2021/12/07 14:18:03;;;;;;;31.07;18.80;;;3.40;99.90;;;;;;5019306;28;21099;-76
2021/12/07 14:20:34;;;;;;;31.53;19.23;;;3.50;99.90;;;;;;5025085;28;20623;-76
2021/12/07 14:23:12;;;;;;;32.73;19.70;;;3.60;99.90;;;;;;5027544;28;20631;-76
2021/12/07 14:25:47;;;;;;;34.07;20.70;;;3.60;99.90;;;;;;5024810;28;20611;-76
2021/12/07 14:28:43;;;;;;;28.63;19.53;;;3.60;99.90;;;;;;5028903;28;20635;-79
2021/12/07 14:31:19;;;;;;;30.53;18.93;;;3.50;99.90;;;;;;5032831;28;20619;-78
2021/12/07 14:33:52;;;;;;;32.93;19.13;;;3.60;99.90;;;;;;5029212;28;20653;-79
2021/12/07 14:36:31;;;;;;;29.70;19.50;;;3.60;99.90;;;;;;5030475;28;20631;-79
2021/12/07 14:39:03;;;;;;;32.43;20.37;;;3.50;99.90;;;;;;5026975;28;20647;-79